Strona główna
METAR-TAF:

METAR-TAF

Lotnisko :

RAF Fairford

Fairford, Anglia

Szerokość geograficzna: 51-41N, Długość geograficzna: 001-47W, wysokość: 87 m

Aktualna obserwacja pogody

Raport powstał 1 godzina i 11 minut temu, godzina 00:56 UTC
Wiatr 16 kt od południowy zachód w porywach dochodzący do 22 kt
Temperatura 5°C
Wilgotność 75%
Ciśnienie 1004 hPa
Widzialność 10 km lub więcej
bezchmurnie

METAR: EGVA 170056Z AUTO 22016G22KT 9999 CLR 05/01 A2964 RMK AO2 PK WND 21029/00 SLP043 T00460011 $

czas: 02:07 (02:07 UTC)


TAF: brakujący

Obserwacja i prognoza pogody dla ponad 4000 lotnisk (raport METAR i TAF).

Dostępne stacje oznaczono żółtymi i czerwonymi punktami na mapie.

Najedź kursorem aby zobaczyć nazwę stacji.

Kliknij aby zobaczyć obserwacje i prognozy pogody.

Aby zmienić mapę: kliknij na zielony przycisk z czarnym krzyżykiem, aby powiększyć; na zielony przycisk z myślnikiem, aby pomniejszyć; na zielone strzałki, aby przejść do map sąsiednich.


METAR-TAF: